Accueil
METAR-TAF:

METAR-TAF

Aéroports :

Funafuti, Tuvalu

latitude: 08-31S, longitude: 179-13E, altitude: 1 m

Observation

Le bulletin a été fait il y a 1 heure et 4 minutes, à 20:00 UTC
Vent 6 kt de est
Température 29°C
Humidité 84%
Pression 1009 hPa
Visibilité 10 km ou plus
Quelques nuages à une hauteur de 1800 ft, Cumulus congestus.

METAR: NGFU 242000Z 09006KT 9999 FEW018TCU 29/26 Q1009

Heure: 09:04 (21:04 UTC)

Prévision

Le bulletin a été fait il y a 3 heures et 37 minutes, à 17:27 UTC
Prévision valable du 24 à 18 UTC au 25 à 18 UTC
Vent 10 kt de est
Visibilité 10 km ou plus
Nuages épars à une hauteur de 1700 ft
Probabilité 30% :
Temporairement
du 25 à 06 UTC au 25 à 18 UTC
Visibilité: 5000 m
Nuages fragmentés à une hauteur de 1500 ft
averses de pluie

TAF: NGFU 241727Z 2418/2518 09010KT 9999 SCT017 PROB30 TEMPO 2506/2518 5000 SHRA BKN015

Observations et prévisions météorologiques de plus de 4000 aéroports (messages METAR et TAF).

Les stations disponibles sont représentées par des disques jaunes et rouges sur la carte.

Passer la souris dessus pour voir le nom de la station.

Cliquer dessus pour voir les observations et prévisions météorologiques.

Pour changer de carte: cliquez sur les boutons verts avec une croix noire pour zoomer, sur le bouton vert avec un tiret pour effectuer un zoom arrière, ou sur les flèches vertes pour les cartes adjacentes.


METAR-TAF: